Time;durP1;ratioP1;P1;durP2;ratioP2;P2;SDS_P1;SDS_P2;PMS_P1;PMS_P2;Temp;Humidity;BMP_temperature;BMP_pressure;BME280_temperature;BME280_humidity;BME280_pressure;Samples;Min_cycle;Max_cycle;Signal;HPM_P1;HPM_P2
2022/12/31 00:02:03;;;;;;;3.00;2.55;;;10.80;99.90;;;;;;5073236;28;20219;-78
2022/12/31 00:04:30;;;;;;;3.05;2.58;;;10.90;99.90;;;;;;5061669;28;20254;-78
2022/12/31 00:06:57;;;;;;;1.98;1.77;;;10.90;99.90;;;;;;5068888;28;20272;-78
2022/12/31 00:09:24;;;;;;;2.35;1.55;;;10.90;99.90;;;;;;5059106;28;20260;-78
2022/12/31 00:11:53;;;;;;;2.33;2.13;;;10.90;99.90;;;;;;5071577;28;20278;-80
2022/12/31 00:14:20;;;;;;;2.22;2.03;;;10.90;99.90;;;;;;5074485;28;20276;-78
2022/12/31 00:16:47;;;;;;;2.88;2.53;;;10.90;99.90;;;;;;5073775;28;20223;-78
2022/12/31 00:19:14;;;;;;;3.50;2.85;;;11.00;99.90;;;;;;5078398;28;20599;-80
2022/12/31 00:21:41;;;;;;;1.65;1.55;;;11.00;99.90;;;;;;5061176;28;20302;-80
2022/12/31 00:24:08;;;;;;;9.23;5.70;;;11.00;99.90;;;;;;5076140;28;20220;-80
2022/12/31 00:26:35;;;;;;;2.30;2.10;;;11.00;99.90;;;;;;5077465;28;20311;-76
2022/12/31 00:29:05;;;;;;;7.03;3.65;;;11.10;99.90;;;;;;5074369;28;20342;-81
2022/12/31 00:31:35;;;;;;;2.35;2.15;;;11.00;99.90;;;;;;5076507;28;20247;-80
2022/12/31 00:34:02;;;;;;;2.30;2.10;;;11.10;99.90;;;;;;5078146;28;20220;-78
2022/12/31 00:36:34;;;;;;;2.05;1.90;;;11.10;99.90;;;;;;5078283;28;20698;-78
2022/12/31 00:39:02;;;;;;;4.82;3.60;;;11.20;99.90;;;;;;5077491;28;20228;-78
2022/12/31 00:41:30;;;;;;;2.85;2.65;;;11.20;99.90;;;;;;5083282;28;20219;-77
2022/12/31 00:43:57;;;;;;;2.47;2.22;;;11.20;99.90;;;;;;5083234;28;20644;-79
2022/12/31 00:46:26;;;;;;;1.90;1.60;;;11.20;99.90;;;;;;5070445;28;20231;-78
2022/12/31 00:48:54;;;;;;;1.55;1.45;;;11.20;99.90;;;;;;5084833;28;20224;-79
2022/12/31 00:51:23;;;;;;;5.70;1.60;;;11.20;99.90;;;;;;5084242;28;20302;-79
2022/12/31 00:53:50;;;;;;;1.92;1.55;;;11.20;99.90;;;;;;5087432;28;20219;-78
2022/12/31 00:56:22;;;;;;;1.15;1.05;;;11.20;99.90;;;;;;5088622;28;20224;-78
2022/12/31 00:58:49;;;;;;;2.05;1.70;;;11.20;99.90;;;;;;5087633;28;20228;-78
2022/12/31 01:01:18;;;;;;;1.85;1.63;;;11.20;99.90;;;;;;5088854;28;20204;-78
2022/12/31 01:03:49;;;;;;;1.67;1.55;;;11.20;99.90;;;;;;5088500;28;20281;-79
2022/12/31 01:06:17;;;;;;;3.03;1.55;;;11.20;99.90;;;;;;5084895;28;20220;-80
2022/12/31 01:08:45;;;;;;;3.00;2.63;;;11.20;99.90;;;;;;5092568;28;20230;-77
2022/12/31 01:11:28;;;;;;;3.65;3.10;;;11.20;99.90;;;;;;5089625;28;20223;-78
2022/12/31 01:13:56;;;;;;;1.50;1.30;;;11.20;99.90;;;;;;5092171;28;20228;-78
2022/12/31 01:16:25;;;;;;;3.10;2.25;;;11.20;99.90;;;;;;5090527;28;20224;-81
2022/12/31 01:19:01;;;;;;;1.75;1.65;;;11.20;99.90;;;;;;5087365;28;20232;-80
2022/12/31 01:21:29;;;;;;;3.10;2.80;;;11.20;99.90;;;;;;5081395;28;20220;-78
2022/12/31 01:24:00;;;;;;;1.90;1.70;;;11.20;99.90;;;;;;5078613;28;20216;-78
2022/12/31 01:26:28;;;;;;;2.95;2.22;;;11.20;99.90;;;;;;5078374;28;20287;-76
2022/12/31 01:28:56;;;;;;;2.88;2.22;;;11.20;99.90;;;;;;5084960;28;20216;-80
2022/12/31 01:31:24;;;;;;;1.50;1.38;;;11.30;99.90;;;;;;5077218;28;20216;-80
2022/12/31 01:33:52;;;;;;;1.60;1.50;;;11.30;99.90;;;;;;5084688;28;20277;-78
2022/12/31 01:36:22;;;;;;;3.00;2.70;;;11.30;99.90;;;;;;5088933;28;20242;-78
2022/12/31 01:38:50;;;;;;;3.08;1.35;;;11.30;99.90;;;;;;5078777;28;20224;-78
2022/12/31 01:41:22;;;;;;;1.17;1.08;;;11.40;99.90;;;;;;5082792;28;20219;-80
2022/12/31 01:43:53;;;;;;;1.42;1.17;;;11.40;99.90;;;;;;5088150;28;20235;-78
2022/12/31 01:46:29;;;;;;;1.33;1.20;;;11.40;99.90;;;;;;5065786;28;20768;-78
2022/12/31 01:49:00;;;;;;;1.10;1.00;;;11.50;99.90;;;;;;5064613;28;20228;-80
2022/12/31 01:51:32;;;;;;;1.40;1.30;;;11.50;99.90;;;;;;5074398;28;20251;-81
2022/12/31 01:54:02;;;;;;;1.15;1.05;;;11.50;99.90;;;;;;5057980;28;20323;-78
2022/12/31 01:56:30;;;;;;;10.48;7.80;;;11.50;99.90;;;;;;5074102;28;20239;-78
2022/12/31 02:01:39;;;;;;;9.07;5.18;;;11.60;99.90;;;;;;5072997;28;20228;-77
2022/12/31 02:04:15;;;;;;;5.50;5.00;;;11.60;99.90;;;;;;5075675;28;20243;-77
2022/12/31 02:06:47;;;;;;;5.40;4.20;;;11.70;99.90;;;;;;5079148;28;20223;-80
2022/12/31 02:09:14;;;;;;;1.58;1.20;;;11.70;99.90;;;;;;5074455;28;20257;-79
2022/12/31 02:11:41;;;;;;;1.05;0.90;;;11.70;99.90;;;;;;5073741;28;20244;-77
2022/12/31 02:14:13;;;;;;;3.20;2.45;;;11.70;99.90;;;;;;5064100;28;20224;-77
2022/12/31 02:16:50;;;;;;;2.67;1.00;;;11.70;99.90;;;;;;5075729;28;20235;-78
2022/12/31 02:19:52;;;;;;;1.00;0.80;;;11.70;99.90;;;;;;5076160;28;20220;-78
2022/12/31 02:22:39;;;;;;;1.63;1.52;;;11.80;99.90;;;;;;5078113;28;20303;-80
2022/12/31 02:25:26;;;;;;;1.02;0.93;;;11.70;99.90;;;;;;5075924;28;20231;-77
2022/12/31 02:28:04;;;;;;;0.80;0.70;;;11.80;99.90;;;;;;5076036;28;20231;-78
2022/12/31 02:30:34;;;;;;;1.13;1.02;;;11.90;99.90;;;;;;5076468;28;20300;-77
2022/12/31 02:33:12;;;;;;;3.28;3.03;;;11.90;99.90;;;;;;5074981;28;20303;-77
2022/12/31 02:35:46;;;;;;;1.48;1.38;;;11.90;99.90;;;;;;5076576;28;20288;-77
2022/12/31 02:38:18;;;;;;;1.13;1.02;;;12.00;99.90;;;;;;5076224;28;20220;-78
2022/12/31 02:40:45;;;;;;;0.80;0.80;;;12.00;99.90;;;;;;5080577;28;20253;-78
2022/12/31 02:43:13;;;;;;;1.58;0.90;;;12.00;99.90;;;;;;5079718;28;20223;-79
2022/12/31 02:45:45;;;;;;;1.30;1.20;;;12.00;99.90;;;;;;5077943;28;20220;-80
2022/12/31 02:48:25;;;;;;;1.13;1.02;;;12.00;99.90;;;;;;5078097;28;20224;-80
2022/12/31 02:51:00;;;;;;;1.30;1.10;;;12.00;99.90;;;;;;5081148;28;20575;-78
2022/12/31 02:53:49;;;;;;;1.52;1.38;;;12.10;99.90;;;;;;5084808;28;20219;-80
2022/12/31 02:56:22;;;;;;;1.30;0.90;;;12.10;99.90;;;;;;5075822;28;20239;-78
2022/12/31 03:04:34;;;;;;;2.03;1.13;;;12.10;99.90;;;;;;5091204;28;20215;-78
2022/12/31 03:07:03;;;;;;;1.02;0.93;;;12.10;99.90;;;;;;5077217;28;20715;-78
2022/12/31 03:09:30;;;;;;;0.73;0.60;;;12.20;99.90;;;;;;5074088;28;20227;-80
2022/12/31 03:14:42;;;;;;;0.70;0.70;;;12.20;99.90;;;;;;5074591;28;20315;-78
2022/12/31 03:17:10;;;;;;;1.05;0.95;;;12.20;99.90;;;;;;5074983;28;20561;-78
2022/12/31 03:22:28;;;;;;;0.70;0.70;;;12.20;99.90;;;;;;5074411;28;20364;-78
2022/12/31 03:27:40;;;;;;;8.45;6.97;;;12.20;99.90;;;;;;5069412;28;20234;-78
2022/12/31 03:30:09;;;;;;;7.18;6.13;;;12.20;99.90;;;;;;5073358;28;20234;-80
2022/12/31 03:32:37;;;;;;;4.05;3.47;;;12.20;99.90;;;;;;5073187;28;20257;-80
2022/12/31 03:35:05;;;;;;;3.10;2.90;;;12.30;99.90;;;;;;5075177;28;20558;-81
2022/12/31 03:37:34;;;;;;;1.73;1.60;;;12.30;99.90;;;;;;5075459;28;20212;-80
2022/12/31 03:40:01;;;;;;;2.35;2.13;;;12.30;99.90;;;;;;5076199;28;20228;-77
2022/12/31 03:42:28;;;;;;;2.15;2.00;;;12.30;99.90;;;;;;5073044;28;20246;-80
2022/12/31 03:44:55;;;;;;;2.50;1.73;;;12.30;99.90;;;;;;5070451;28;20230;-80
2022/12/31 03:47:21;;;;;;;2.25;1.10;;;12.30;99.90;;;;;;5072441;28;20224;-80
2022/12/31 03:49:50;;;;;;;1.35;1.10;;;12.30;99.90;;;;;;5072907;28;20247;-78
2022/12/31 03:52:17;;;;;;;1.75;1.48;;;12.30;99.90;;;;;;5074310;28;20307;-80
2022/12/31 03:54:44;;;;;;;1.65;1.20;;;12.30;99.90;;;;;;5073575;28;20220;-79
2022/12/31 03:57:12;;;;;;;1.90;1.52;;;12.30;99.90;;;;;;5073989;28;20220;-80
2022/12/31 03:59:39;;;;;;;1.30;1.20;;;12.20;99.90;;;;;;5073101;28;20243;-78
2022/12/31 04:02:06;;;;;;;1.00;0.90;;;12.30;99.90;;;;;;5073636;28;20674;-77
2022/12/31 04:04:33;;;;;;;1.17;1.05;;;12.30;99.90;;;;;;5073543;28;20307;-80
2022/12/31 04:07:03;;;;;;;1.00;0.80;;;12.30;99.90;;;;;;5073691;28;20253;-79
2022/12/31 04:09:29;;;;;;;1.15;0.80;;;12.30;99.90;;;;;;5073345;28;20232;-80
2022/12/31 04:11:57;;;;;;;2.38;1.85;;;12.30;99.90;;;;;;5073136;28;20250;-77
2022/12/31 04:14:24;;;;;;;2.03;1.52;;;12.30;99.90;;;;;;5073307;28;20544;-80
2022/12/31 04:16:51;;;;;;;1.42;1.00;;;12.30;99.90;;;;;;5072857;28;20228;-79
2022/12/31 04:19:19;;;;;;;1.90;1.70;;;12.30;99.90;;;;;;5072533;28;20224;-77
2022/12/31 04:21:49;;;;;;;1.00;0.90;;;12.40;99.90;;;;;;5072708;28;20311;-79
2022/12/31 04:24:17;;;;;;;1.10;0.98;;;12.40;99.90;;;;;;5073214;28;20281;-79
2022/12/31 04:26:44;;;;;;;0.85;0.85;;;12.40;99.90;;;;;;5072356;28;20231;-80
2022/12/31 04:29:11;;;;;;;1.40;1.00;;;12.40;99.90;;;;;;5073130;28;20289;-80
2022/12/31 04:31:38;;;;;;;1.50;1.00;;;12.50;99.90;;;;;;5072926;28;20224;-79
2022/12/31 04:34:05;;;;;;;0.70;0.70;;;12.40;99.90;;;;;;5073492;28;20674;-77
2022/12/31 04:36:32;;;;;;;1.60;1.50;;;12.50;99.90;;;;;;5073041;28;20231;-77
2022/12/31 04:38:59;;;;;;;7.28;5.43;;;12.50;99.90;;;;;;5072109;28;20334;-79
2022/12/31 04:41:28;;;;;;;4.95;3.67;;;12.50;99.90;;;;;;5073184;28;20409;-77
2022/12/31 04:43:58;;;;;;;1.63;1.52;;;12.50;99.90;;;;;;5072175;28;20239;-80
2022/12/31 04:46:27;;;;;;;1.10;1.00;;;12.50;99.90;;;;;;5073346;28;20244;-77
2022/12/31 04:48:55;;;;;;;3.08;1.58;;;12.50;99.90;;;;;;5070878;28;20228;-78
2022/12/31 04:51:22;;;;;;;2.75;1.20;;;12.50;99.90;;;;;;5073015;28;20314;-79
2022/12/31 04:53:50;;;;;;;1.45;1.00;;;12.60;99.90;;;;;;5072240;28;20230;-78
2022/12/31 04:56:17;;;;;;;1.92;1.80;;;12.60;99.90;;;;;;5073638;28;20256;-77
2022/12/31 04:58:46;;;;;;;8.43;1.20;;;12.60;99.90;;;;;;5072457;28;20289;-79
2022/12/31 05:01:13;;;;;;;1.17;1.00;;;12.60;99.90;;;;;;5072984;28;20223;-79
2022/12/31 05:03:40;;;;;;;1.15;0.90;;;12.60;99.90;;;;;;5072955;28;20273;-77
2022/12/31 05:06:11;;;;;;;2.00;1.90;;;12.60;99.90;;;;;;5072427;28;20220;-77
2022/12/31 05:08:38;;;;;;;1.00;0.90;;;12.60;99.90;;;;;;5072700;28;20262;-80
2022/12/31 05:11:06;;;;;;;0.80;0.80;;;12.60;99.90;;;;;;5072430;28;20301;-79
2022/12/31 05:13:33;;;;;;;3.05;2.28;;;12.60;99.90;;;;;;5072962;28;20250;-80
2022/12/31 05:16:02;;;;;;;1.40;1.20;;;12.60;99.90;;;;;;5072083;28;20231;-80
2022/12/31 05:18:33;;;;;;;0.75;0.75;;;12.70;99.90;;;;;;5072709;28;20228;-80
2022/12/31 05:21:00;;;;;;;1.15;1.00;;;12.70;99.90;;;;;;5072024;28;20232;-81
2022/12/31 05:23:28;;;;;;;0.95;0.80;;;12.70;99.90;;;;;;5072411;28;20230;-80
2022/12/31 05:25:55;;;;;;;0.80;0.80;;;12.70;99.90;;;;;;5071867;28;20220;-79
2022/12/31 05:28:22;;;;;;;1.13;1.02;;;12.70;99.90;;;;;;5072268;28;20282;-77
2022/12/31 05:30:50;;;;;;;0.82;0.80;;;12.70;99.90;;;;;;5071823;28;20224;-80
2022/12/31 05:33:20;;;;;;;1.02;0.95;;;12.80;99.90;;;;;;5073037;28;20239;-78
2022/12/31 05:35:46;;;;;;;1.10;0.82;;;12.70;99.90;;;;;;5072247;28;20577;-78
2022/12/31 05:38:13;;;;;;;3.75;2.67;;;12.80;99.90;;;;;;5072105;28;20248;-78
2022/12/31 05:40:40;;;;;;;2.53;1.98;;;12.80;99.90;;;;;;5072398;28;20281;-78
2022/12/31 05:43:08;;;;;;;4.30;0.90;;;12.70;99.90;;;;;;5071422;28;20231;-80
2022/12/31 05:45:35;;;;;;;1.33;1.10;;;12.70;99.90;;;;;;5072665;28;20757;-81
2022/12/31 05:48:02;;;;;;;1.05;0.90;;;12.70;99.90;;;;;;5072265;28;20350;-80
2022/12/31 05:50:30;;;;;;;0.85;0.82;;;12.70;99.90;;;;;;5072566;28;20582;-80
2022/12/31 05:52:57;;;;;;;1.00;1.00;;;12.70;99.90;;;;;;5075548;28;20223;-78
2022/12/31 05:55:24;;;;;;;1.83;0.80;;;12.80;99.90;;;;;;5076144;28;20251;-78
2022/12/31 05:57:51;;;;;;;0.70;0.70;;;12.70;99.90;;;;;;5066641;28;20627;-80
2022/12/31 06:00:18;;;;;;;0.73;0.70;;;12.80;99.90;;;;;;5075900;28;20228;-78
2022/12/31 06:02:46;;;;;;;1.00;0.90;;;12.80;99.90;;;;;;5076389;28;20236;-78
2022/12/31 06:05:13;;;;;;;1.42;1.10;;;12.80;99.90;;;;;;5075534;28;20666;-80
2022/12/31 06:07:41;;;;;;;1.17;1.08;;;12.80;99.90;;;;;;5076050;28;20227;-80
2022/12/31 06:10:08;;;;;;;2.75;0.90;;;12.80;99.90;;;;;;5075044;28;20704;-80
2022/12/31 06:12:38;;;;;;;0.82;0.82;;;12.80;99.90;;;;;;5075813;28;20303;-80
2022/12/31 06:15:06;;;;;;;0.97;0.90;;;12.80;99.90;;;;;;5077444;28;20306;-79
2022/12/31 06:17:33;;;;;;;0.95;0.95;;;12.90;99.90;;;;;;5097174;28;20462;-78
2022/12/31 06:20:00;;;;;;;1.08;0.98;;;12.90;99.90;;;;;;5090567;28;20708;-77
2022/12/31 06:22:29;;;;;;;1.65;0.82;;;12.90;99.90;;;;;;5076879;28;20661;-80
2022/12/31 06:24:58;;;;;;;2.95;1.52;;;12.90;99.90;;;;;;5077848;28;20236;-78
2022/12/31 06:27:25;;;;;;;2.03;1.25;;;12.90;99.90;;;;;;5075886;28;20220;-77
2022/12/31 06:29:52;;;;;;;2.08;1.80;;;12.80;99.90;;;;;;5076697;28;20278;-78
2022/12/31 06:32:19;;;;;;;2.38;1.33;;;12.90;99.90;;;;;;5075840;28;20291;-78
2022/12/31 06:34:48;;;;;;;1.73;1.20;;;12.90;99.90;;;;;;5077185;28;20227;-78
2022/12/31 06:37:15;;;;;;;1.73;1.10;;;12.90;99.90;;;;;;5078115;28;20936;-80
2022/12/31 06:39:42;;;;;;;0.90;0.80;;;12.90;99.90;;;;;;5075742;28;20737;-80
2022/12/31 06:42:10;;;;;;;1.30;1.13;;;12.90;99.90;;;;;;5075536;28;20224;-81
2022/12/31 06:44:37;;;;;;;1.42;1.33;;;12.90;99.90;;;;;;5075285;28;20247;-81
2022/12/31 06:47:04;;;;;;;1.35;0.90;;;13.00;99.90;;;;;;5074442;28;20276;-80
2022/12/31 06:49:31;;;;;;;1.15;0.90;;;12.90;99.90;;;;;;5075464;28;20226;-81
2022/12/31 06:51:58;;;;;;;1.58;1.15;;;13.00;99.90;;;;;;5074438;28;20246;-81
2022/12/31 06:54:25;;;;;;;1.50;1.35;;;13.00;99.90;;;;;;5074389;28;20228;-81
2022/12/31 06:56:53;;;;;;;2.35;2.15;;;13.00;99.90;;;;;;5075113;28;20248;-79
2022/12/31 06:59:27;;;;;;;1.88;1.20;;;13.00;99.90;;;;;;5073959;28;20246;-80
2022/12/31 07:02:07;;;;;;;1.42;0.98;;;13.10;99.90;;;;;;5074476;28;20220;-80
2022/12/31 07:05:05;;;;;;;1.30;0.70;;;13.10;99.90;;;;;;5075448;28;20339;-79
2022/12/31 07:07:35;;;;;;;1.47;1.20;;;13.10;99.90;;;;;;5062216;28;20217;-78
2022/12/31 07:10:14;;;;;;;1.23;1.00;;;13.10;99.90;;;;;;5074595;28;20773;-77
2022/12/31 07:13:00;;;;;;;2.53;2.33;;;13.10;99.90;;;;;;5073212;28;20475;-77
2022/12/31 07:15:48;;;;;;;0.80;0.80;;;13.20;99.90;;;;;;5073336;28;20512;-77
2022/12/31 07:18:27;;;;;;;1.00;0.90;;;13.20;99.90;;;;;;5074639;28;20220;-78
2022/12/31 07:20:54;;;;;;;1.40;1.00;;;13.30;99.90;;;;;;5064449;28;20226;-80
2022/12/31 07:23:22;;;;;;;1.63;1.30;;;13.30;99.90;;;;;;5074304;28;20223;-77
2022/12/31 07:25:55;;;;;;;1.40;0.90;;;13.30;99.90;;;;;;5074003;28;20479;-80
2022/12/31 07:28:39;;;;;;;1.10;1.00;;;13.30;99.90;;;;;;5074407;28;20219;-78
2022/12/31 07:31:13;;;;;;;1.90;1.70;;;13.40;99.90;;;;;;5071519;28;20474;-80
2022/12/31 07:33:58;;;;;;;1.27;1.00;;;13.40;99.90;;;;;;5074137;28;20224;-78
2022/12/31 07:36:52;;;;;;;0.93;0.80;;;13.50;99.90;;;;;;5074025;28;20220;-80
2022/12/31 07:39:26;;;;;;;2.03;1.03;;;13.50;99.90;;;;;;5074311;28;20539;-80
2022/12/31 07:42:03;;;;;;;0.70;0.70;;;13.60;99.90;;;;;;5074108;28;20796;-79
2022/12/31 07:44:41;;;;;;;2.08;1.38;;;13.60;99.90;;;;;;5073422;28;20546;-77
2022/12/31 07:47:20;;;;;;;1.33;1.20;;;13.70;99.90;;;;;;5074104;28;20228;-77
2022/12/31 07:49:48;;;;;;;0.67;0.67;;;13.70;99.90;;;;;;5073137;28;20477;-77
2022/12/31 07:52:16;;;;;;;1.07;0.97;;;13.70;99.90;;;;;;5074025;28;20553;-78
2022/12/31 07:54:45;;;;;;;0.80;0.70;;;13.80;99.90;;;;;;5073321;28;20470;-78
2022/12/31 07:57:14;;;;;;;1.23;0.87;;;13.90;99.90;;;;;;5064357;28;21069;-78
2022/12/31 07:59:51;;;;;;;2.20;0.90;;;13.90;99.90;;;;;;5061935;28;20838;-78
2022/12/31 08:02:34;;;;;;;2.57;2.10;;;14.00;99.90;;;;;;5072481;28;20607;-78
2022/12/31 08:05:08;;;;;;;1.00;0.80;;;14.00;99.90;;;;;;5073553;28;20516;-78
2022/12/31 08:07:43;;;;;;;3.10;2.30;;;14.10;99.90;;;;;;5073280;28;20477;-78
2022/12/31 08:10:16;;;;;;;1.47;1.07;;;14.10;99.90;;;;;;5072657;28;20523;-78
2022/12/31 08:12:45;;;;;;;1.27;0.90;;;14.10;99.90;;;;;;5072684;28;20470;-78
2022/12/31 08:15:20;;;;;;;1.00;0.90;;;14.20;99.90;;;;;;5063734;28;20536;-77
2022/12/31 08:17:50;;;;;;;1.77;0.80;;;14.20;99.90;;;;;;5073291;28;20477;-79
2022/12/31 08:20:20;;;;;;;1.53;0.97;;;14.30;99.90;;;;;;5072724;28;20487;-78
2022/12/31 08:23:18;;;;;;;1.30;1.20;;;14.30;99.90;;;;;;5073451;28;20482;-79
2022/12/31 08:26:03;;;;;;;1.93;1.20;;;14.30;99.90;;;;;;5075704;28;20490;-80
2022/12/31 08:28:48;;;;;;;2.03;1.33;;;14.40;99.90;;;;;;5086261;28;20492;-81
2022/12/31 08:31:19;;;;;;;0.80;0.60;;;14.40;99.90;;;;;;5083401;28;20484;-79
2022/12/31 08:33:57;;;;;;;1.27;0.93;;;14.40;99.90;;;;;;5080518;28;20454;-77
2022/12/31 08:36:38;;;;;;;2.07;1.70;;;14.50;99.90;;;;;;5073070;28;20546;-78
2022/12/31 08:39:15;;;;;;;3.07;2.13;;;14.50;99.90;;;;;;5073510;28;20467;-77
2022/12/31 08:41:45;;;;;;;6.10;2.13;;;14.50;99.90;;;;;;5072257;28;20567;-77
2022/12/31 08:44:25;;;;;;;2.87;2.17;;;14.50;99.90;;;;;;5074184;28;20478;-79
2022/12/31 08:47:04;;;;;;;6.40;2.57;;;14.60;99.90;;;;;;5073120;28;20467;-77
2022/12/31 08:49:35;;;;;;;6.00;1.70;;;14.60;99.90;;;;;;5072570;28;20973;-77
2022/12/31 08:52:03;;;;;;;1.90;1.10;;;14.70;99.90;;;;;;5072552;28;20528;-80
2022/12/31 08:54:30;;;;;;;1.57;1.13;;;14.70;99.90;;;;;;5072339;28;20498;-79
2022/12/31 08:57:04;;;;;;;3.40;2.00;;;14.80;99.90;;;;;;5072377;28;20481;-77
2022/12/31 08:59:43;;;;;;;1.30;1.10;;;14.80;99.90;;;;;;5070219;28;20481;-77
2022/12/31 09:02:35;;;;;;;1.83;1.03;;;14.90;99.90;;;;;;5073094;28;20466;-80
2022/12/31 09:05:14;;;;;;;1.27;1.17;;;14.90;99.90;;;;;;5071558;28;20470;-79
2022/12/31 09:07:49;;;;;;;1.37;1.27;;;14.90;99.90;;;;;;5071587;28;20514;-80
2022/12/31 09:10:20;;;;;;;4.53;2.87;;;15.00;99.90;;;;;;5072742;28;20849;-79
2022/12/31 09:12:56;;;;;;;1.93;1.50;;;15.00;99.90;;;;;;5072091;28;20481;-80
2022/12/31 09:15:30;;;;;;;1.57;1.30;;;15.00;99.90;;;;;;5072591;28;20477;-78
2022/12/31 09:17:57;;;;;;;2.23;1.00;;;15.10;99.90;;;;;;5072114;28;20462;-79
2022/12/31 09:20:39;;;;;;;2.07;1.57;;;15.10;99.90;;;;;;5072512;28;20550;-80
2022/12/31 09:23:07;;;;;;;1.63;1.10;;;15.10;99.90;;;;;;5072177;28;20792;-79
2022/12/31 09:25:42;;;;;;;1.90;0.97;;;15.10;99.90;;;;;;5075768;28;20466;-81
2022/12/31 09:28:16;;;;;;;1.30;1.00;;;15.20;99.90;;;;;;5075653;28;20568;-77
2022/12/31 09:30:53;;;;;;;5.23;1.10;;;15.20;99.90;;;;;;5076345;28;20466;-79
2022/12/31 09:33:35;;;;;;;3.83;1.60;;;15.30;99.90;;;;;;5075850;28;20794;-77
2022/12/31 09:36:07;;;;;;;3.60;1.70;;;15.30;99.90;;;;;;5075521;28;20811;-80
2022/12/31 09:38:41;;;;;;;3.80;2.80;;;15.40;99.90;;;;;;5076662;28;20609;-78
2022/12/31 09:41:24;;;;;;;4.53;3.27;;;15.40;99.90;;;;;;5075899;28;20549;-78
2022/12/31 09:44:33;;;;;;;2.27;2.07;;;15.50;99.90;;;;;;5076206;28;20553;-78
2022/12/31 09:47:28;;;;;;;4.60;3.40;;;15.50;99.90;;;;;;5040736;28;20524;-80
2022/12/31 09:50:37;;;;;;;2.60;2.40;;;15.60;99.90;;;;;;5075122;28;20528;-78
2022/12/31 09:53:36;;;;;;;2.20;2.00;;;15.60;99.90;;;;;;5075765;28;20474;-78
2022/12/31 09:56:10;;;;;;;4.77;3.80;;;15.60;99.90;;;;;;5075898;28;20497;-80
2022/12/31 09:58:44;;;;;;;5.80;3.77;;;15.70;99.90;;;;;;5075941;28;20803;-81
2022/12/31 10:01:30;;;;;;;1.97;1.83;;;15.80;99.90;;;;;;5074520;28;20499;-77
2022/12/31 10:04:36;;;;;;;1.90;1.50;;;15.70;99.90;;;;;;5075302;28;20554;-80
2022/12/31 10:07:29;;;;;;;3.47;2.10;;;15.90;99.90;;;;;;5064573;28;20474;-81
2022/12/31 10:10:05;;;;;;;4.00;3.40;;;15.90;99.90;;;;;;5067907;28;21014;-81
2022/12/31 10:13:02;;;;;;;4.07;3.73;;;15.90;99.90;;;;;;5076273;28;20591;-81
2022/12/31 10:15:53;;;;;;;3.87;2.93;;;16.00;99.90;;;;;;5076644;28;20804;-80
2022/12/31 10:18:36;;;;;;;4.37;3.53;;;16.00;99.90;;;;;;5065884;28;21050;-80
2022/12/31 10:21:18;;;;;;;4.37;2.83;;;16.10;99.90;;;;;;5075315;28;20856;-78
2022/12/31 10:24:07;;;;;;;2.80;2.60;;;16.00;99.90;;;;;;5074886;28;20961;-80
2022/12/31 10:27:11;;;;;;;3.80;3.40;;;16.00;99.90;;;;;;5075383;28;20474;-80
2022/12/31 10:29:46;;;;;;;4.27;3.77;;;16.10;99.90;;;;;;5075301;28;20557;-80
2022/12/31 10:32:20;;;;;;;4.47;3.27;;;16.10;99.90;;;;;;5076132;28;20492;-80
2022/12/31 10:34:59;;;;;;;3.23;2.90;;;16.00;99.90;;;;;;5075206;28;20545;-79
2022/12/31 10:37:33;;;;;;;5.30;2.90;;;16.00;99.90;;;;;;5074682;28;20473;-79
2022/12/31 10:40:12;;;;;;;4.17;3.27;;;16.00;99.90;;;;;;5079870;28;20454;-80
2022/12/31 10:43:20;;;;;;;3.83;2.67;;;16.00;99.90;;;;;;5070828;28;20546;-78
2022/12/31 10:46:15;;;;;;;3.37;3.07;;;16.00;99.90;;;;;;5075661;28;20454;-78
2022/12/31 10:49:09;;;;;;;4.00;2.60;;;16.00;99.90;;;;;;5067623;28;20804;-80
2022/12/31 10:52:08;;;;;;;3.10;2.40;;;16.00;99.90;;;;;;5063435;28;20458;-80
2022/12/31 10:55:13;;;;;;;5.00;3.10;;;16.00;99.90;;;;;;5074113;28;20481;-79
2022/12/31 10:58:27;;;;;;;4.90;3.93;;;16.00;99.90;;;;;;5073907;28;20470;-81
2022/12/31 11:01:04;;;;;;;2.77;2.57;;;16.00;99.90;;;;;;5073710;28;20772;-80
2022/12/31 11:04:08;;;;;;;3.23;2.90;;;15.90;99.90;;;;;;5075560;28;20466;-80
2022/12/31 11:07:15;;;;;;;3.70;3.40;;;15.90;99.90;;;;;;5066370;28;20971;-80
2022/12/31 11:10:14;;;;;;;3.10;2.50;;;15.90;99.90;;;;;;5073919;28;20494;-78
2022/12/31 11:13:02;;;;;;;3.03;2.43;;;15.90;99.90;;;;;;5073933;28;20785;-78
2022/12/31 11:15:49;;;;;;;3.10;2.10;;;15.90;99.90;;;;;;5074016;28;20462;-77
2022/12/31 11:18:26;;;;;;;2.60;2.40;;;15.80;99.90;;;;;;5074652;28;20470;-80
2022/12/31 11:21:17;;;;;;;3.03;1.73;;;15.80;99.90;;;;;;5073526;28;20470;-77
2022/12/31 11:23:53;;;;;;;3.17;2.00;;;15.80;99.90;;;;;;5072377;28;20556;-77
2022/12/31 11:26:33;;;;;;;3.30;2.77;;;15.80;99.90;;;;;;5074248;28;20466;-77
2022/12/31 11:29:08;;;;;;;4.30;3.17;;;15.80;99.90;;;;;;5062982;28;20516;-78
2022/12/31 11:31:51;;;;;;;3.60;2.40;;;15.80;99.90;;;;;;5074254;28;20979;-79
2022/12/31 11:34:48;;;;;;;2.90;2.20;;;15.80;99.90;;;;;;5074950;28;20790;-77
2022/12/31 11:37:29;;;;;;;2.00;1.77;;;15.80;99.90;;;;;;5073989;28;20486;-78
2022/12/31 11:40:11;;;;;;;2.40;2.20;;;15.70;99.90;;;;;;5063615;28;20972;-78
2022/12/31 11:42:46;;;;;;;3.23;3.03;;;15.70;99.90;;;;;;5056985;28;20469;-81
2022/12/31 11:45:21;;;;;;;3.57;2.63;;;15.80;99.90;;;;;;5072439;28;20745;-77
2022/12/31 11:47:59;;;;;;;4.23;3.37;;;15.70;99.90;;;;;;5072841;28;20817;-78
2022/12/31 11:50:39;;;;;;;3.10;2.30;;;15.70;99.90;;;;;;5074089;28;20466;-78
2022/12/31 11:53:24;;;;;;;2.00;1.80;;;15.70;99.90;;;;;;5074734;28;20944;-78
2022/12/31 11:55:59;;;;;;;1.90;1.77;;;15.70;99.90;;;;;;5073877;28;20785;-78
2022/12/31 11:58:27;;;;;;;3.57;1.73;;;15.70;99.90;;;;;;5073078;28;20466;-77
2022/12/31 12:00:57;;;;;;;3.70;2.03;;;15.70;99.90;;;;;;5073036;28;20470;-83
2022/12/31 12:03:25;;;;;;;2.13;1.20;;;15.70;99.90;;;;;;5074297;28;20573;-81
2022/12/31 12:05:53;;;;;;;3.03;2.30;;;15.70;99.90;;;;;;5072156;28;20615;-79
2022/12/31 12:08:20;;;;;;;2.10;1.77;;;15.80;99.90;;;;;;5063564;28;20536;-78
2022/12/31 12:10:50;;;;;;;1.47;1.37;;;15.80;99.90;;;;;;5072340;28;20481;-79
2022/12/31 12:13:25;;;;;;;1.80;1.60;;;15.80;99.90;;;;;;5060014;28;20972;-77
2022/12/31 12:15:55;;;;;;;2.00;1.67;;;15.80;99.90;;;;;;5073473;28;20481;-80
2022/12/31 12:18:30;;;;;;;1.80;1.20;;;15.90;99.90;;;;;;5072833;28;20923;-80
2022/12/31 12:21:10;;;;;;;2.40;1.47;;;15.90;99.90;;;;;;5072802;28;20483;-80
2022/12/31 12:23:41;;;;;;;2.97;2.63;;;16.00;99.90;;;;;;5073844;28;20516;-81
2022/12/31 12:26:30;;;;;;;9.93;8.30;;;16.00;99.90;;;;;;5072473;28;20478;-79
2022/12/31 12:31:42;;;;;;;3.60;2.80;;;16.30;99.90;;;;;;5065488;28;20463;-79
2022/12/31 12:34:26;;;;;;;1.57;1.43;;;16.20;99.90;;;;;;5072263;28;20462;-78
2022/12/31 12:36:53;;;;;;;1.57;1.00;;;16.30;99.90;;;;;;5072658;28;20849;-79
2022/12/31 12:39:22;;;;;;;2.10;1.20;;;16.40;99.90;;;;;;5072979;28;21109;-80
2022/12/31 12:42:08;;;;;;;2.93;2.00;;;16.50;99.90;;;;;;5072639;28;20477;-77
2022/12/31 12:44:35;;;;;;;5.33;3.23;;;16.50;99.90;;;;;;5071966;28;20966;-78
2022/12/31 12:47:09;;;;;;;7.97;6.70;;;16.60;99.90;;;;;;5072506;28;20477;-77
2022/12/31 12:49:41;;;;;;;5.27;3.83;;;16.60;99.90;;;;;;5072999;28;20979;-78
2022/12/31 12:52:34;;;;;;;5.10;3.17;;;16.70;99.90;;;;;;5072292;28;20454;-80
2022/12/31 12:55:17;;;;;;;7.80;4.30;;;16.70;99.90;;;;;;5072353;28;20528;-78
2022/12/31 12:57:51;;;;;;;2.73;1.70;;;16.80;99.90;;;;;;5072636;28;20469;-79
2022/12/31 13:00:29;;;;;;;2.00;1.77;;;16.90;99.90;;;;;;5072009;28;20545;-79
2022/12/31 13:03:34;;;;;;;1.60;1.20;;;16.90;99.90;;;;;;5072188;28;20972;-80
2022/12/31 13:06:27;;;;;;;2.20;1.20;;;17.00;99.90;;;;;;5072225;28;20462;-78
2022/12/31 13:09:10;;;;;;;2.40;1.43;;;17.10;99.90;;;;;;5062186;28;20466;-79
2022/12/31 13:11:51;;;;;;;1.73;1.63;;;17.10;99.90;;;;;;5068040;28;20482;-78
2022/12/31 13:14:25;;;;;;;1.50;1.40;;;17.20;99.90;;;;;;5072406;28;20948;-78
2022/12/31 13:16:59;;;;;;;1.67;1.33;;;17.20;99.90;;;;;;5071566;28;20461;-79
2022/12/31 13:19:35;;;;;;;2.93;1.70;;;17.20;99.90;;;;;;5072135;28;20524;-79
2022/12/31 13:22:08;;;;;;;2.73;1.70;;;17.20;99.90;;;;;;5070677;28;20504;-78
2022/12/31 13:24:56;;;;;;;2.13;1.43;;;17.30;99.90;;;;;;5072781;28;20537;-79
2022/12/31 13:27:29;;;;;;;2.80;1.40;;;17.30;99.90;;;;;;5072778;28;20470;-79
2022/12/31 13:30:03;;;;;;;2.63;2.03;;;17.30;99.90;;;;;;5072287;28;20956;-79
2022/12/31 13:32:39;;;;;;;1.60;1.43;;;17.30;99.90;;;;;;5072185;28;20552;-78
2022/12/31 13:35:21;;;;;;;1.13;1.03;;;17.40;99.90;;;;;;5072168;28;20468;-78
2022/12/31 13:38:02;;;;;;;2.63;1.70;;;17.40;99.90;;;;;;5062680;28;20554;-78
2022/12/31 13:40:34;;;;;;;2.07;1.20;;;17.40;99.90;;;;;;5071739;28;20537;-79
2022/12/31 13:43:08;;;;;;;1.07;0.97;;;17.40;99.90;;;;;;5072105;28;20525;-79
2022/12/31 13:45:42;;;;;;;2.50;1.60;;;17.40;99.90;;;;;;5071445;28;21039;-78